sensor_id;sensor_type;location;lat;lon;timestamp;P1;durP1;ratioP1;P2;durP2;ratioP2
16822;SDS011;8528;49.976;11.858;2023-02-15T00:01:41;19.67;;;8.87;;
16822;SDS011;8528;49.976;11.858;2023-02-15T00:04:09;19.30;;;9.00;;
16822;SDS011;8528;49.976;11.858;2023-02-15T00:06:39;17.13;;;8.00;;
16822;SDS011;8528;49.976;11.858;2023-02-15T00:09:06;16.53;;;7.90;;
16822;SDS011;8528;49.976;11.858;2023-02-15T00:11:35;18.43;;;8.03;;
16822;SDS011;8528;49.976;11.858;2023-02-15T00:14:11;14.60;;;8.30;;
16822;SDS011;8528;49.976;11.858;2023-02-15T00:16:49;13.27;;;8.00;;
16822;SDS011;8528;49.976;11.858;2023-02-15T00:19:17;11.27;;;6.23;;
16822;SDS011;8528;49.976;11.858;2023-02-15T00:21:46;14.17;;;6.23;;
16822;SDS011;8528;49.976;11.858;2023-02-15T00:24:14;14.67;;;7.40;;
16822;SDS011;8528;49.976;11.858;2023-02-15T00:26:42;10.87;;;6.93;;
16822;SDS011;8528;49.976;11.858;2023-02-15T00:29:10;12.47;;;6.87;;
16822;SDS011;8528;49.976;11.858;2023-02-15T00:31:38;14.77;;;7.37;;
16822;SDS011;8528;49.976;11.858;2023-02-15T00:34:13;12.33;;;7.27;;
16822;SDS011;8528;49.976;11.858;2023-02-15T00:36:42;13.57;;;7.47;;
16822;SDS011;8528;49.976;11.858;2023-02-15T00:39:10;13.97;;;7.37;;
16822;SDS011;8528;49.976;11.858;2023-02-15T00:41:37;15.87;;;7.47;;
16822;SDS011;8528;49.976;11.858;2023-02-15T00:44:05;14.03;;;7.40;;
16822;SDS011;8528;49.976;11.858;2023-02-15T00:46:32;11.33;;;6.90;;
16822;SDS011;8528;49.976;11.858;2023-02-15T00:48:59;14.63;;;6.90;;
16822;SDS011;8528;49.976;11.858;2023-02-15T00:51:26;10.50;;;6.10;;
16822;SDS011;8528;49.976;11.858;2023-02-15T00:53:53;14.27;;;6.90;;
16822;SDS011;8528;49.976;11.858;2023-02-15T00:56:20;11.47;;;6.77;;
16822;SDS011;8528;49.976;11.858;2023-02-15T00:58:47;13.03;;;6.83;;
16822;SDS011;8528;49.976;11.858;2023-02-15T01:01:15;12.87;;;6.70;;
16822;SDS011;8528;49.976;11.858;2023-02-15T01:03:43;12.90;;;6.43;;
16822;SDS011;8528;49.976;11.858;2023-02-15T01:06:12;14.03;;;6.00;;
16822;SDS011;8528;49.976;11.858;2023-02-15T01:08:40;11.33;;;6.83;;
16822;SDS011;8528;49.976;11.858;2023-02-15T01:11:12;15.63;;;6.93;;
16822;SDS011;8528;49.976;11.858;2023-02-15T01:13:52;13.90;;;7.03;;
16822;SDS011;8528;49.976;11.858;2023-02-15T01:16:24;15.37;;;7.80;;
16822;SDS011;8528;49.976;11.858;2023-02-15T01:18:52;18.03;;;8.83;;
16822;SDS011;8528;49.976;11.858;2023-02-15T01:21:21;16.60;;;8.97;;
16822;SDS011;8528;49.976;11.858;2023-02-15T01:23:50;19.13;;;8.07;;
16822;SDS011;8528;49.976;11.858;2023-02-15T01:26:17;15.17;;;7.57;;
16822;SDS011;8528;49.976;11.858;2023-02-15T01:28:44;18.80;;;8.50;;
16822;SDS011;8528;49.976;11.858;2023-02-15T01:31:12;19.97;;;8.27;;
16822;SDS011;8528;49.976;11.858;2023-02-15T01:33:41;14.10;;;8.13;;
16822;SDS011;8528;49.976;11.858;2023-02-15T01:36:08;15.60;;;8.73;;
16822;SDS011;8528;49.976;11.858;2023-02-15T01:38:35;11.73;;;7.27;;
16822;SDS011;8528;49.976;11.858;2023-02-15T01:41:02;10.63;;;6.30;;
16822;SDS011;8528;49.976;11.858;2023-02-15T01:43:57;13.47;;;6.93;;
16822;SDS011;8528;49.976;11.858;2023-02-15T01:49:03;12.60;;;6.40;;
16822;SDS011;8528;49.976;11.858;2023-02-15T01:51:39;15.97;;;7.07;;
16822;SDS011;8528;49.976;11.858;2023-02-15T01:54:10;12.00;;;7.07;;
16822;SDS011;8528;49.976;11.858;2023-02-15T01:56:45;11.83;;;6.73;;
16822;SDS011;8528;49.976;11.858;2023-02-15T01:59:15;13.60;;;6.87;;
16822;SDS011;8528;49.976;11.858;2023-02-15T02:01:46;14.30;;;7.10;;
16822;SDS011;8528;49.976;11.858;2023-02-15T02:04:15;9.50;;;6.33;;
16822;SDS011;8528;49.976;11.858;2023-02-15T02:06:46;13.30;;;6.33;;
16822;SDS011;8528;49.976;11.858;2023-02-15T02:09:15;8.20;;;5.70;;
16822;SDS011;8528;49.976;11.858;2023-02-15T02:11:42;9.37;;;5.97;;
16822;SDS011;8528;49.976;11.858;2023-02-15T02:14:12;9.50;;;5.93;;
16822;SDS011;8528;49.976;11.858;2023-02-15T02:22:15;9.30;;;6.00;;
16822;SDS011;8528;49.976;11.858;2023-02-15T02:27:57;8.00;;;5.50;;
16822;SDS011;8528;49.976;11.858;2023-02-15T02:36:59;8.37;;;5.47;;
16822;SDS011;8528;49.976;11.858;2023-02-15T02:39:49;9.93;;;5.37;;
16822;SDS011;8528;49.976;11.858;2023-02-15T02:42:39;9.73;;;6.27;;
16822;SDS011;8528;49.976;11.858;2023-02-15T02:45:16;11.20;;;6.00;;
16822;SDS011;8528;49.976;11.858;2023-02-15T02:50:13;13.63;;;6.50;;
16822;SDS011;8528;49.976;11.858;2023-02-15T02:52:48;11.83;;;5.63;;
16822;SDS011;8528;49.976;11.858;2023-02-15T02:57:52;10.03;;;5.57;;
16822;SDS011;8528;49.976;11.858;2023-02-15T03:00:45;12.03;;;6.67;;
16822;SDS011;8528;49.976;11.858;2023-02-15T03:03:20;9.30;;;5.97;;
16822;SDS011;8528;49.976;11.858;2023-02-15T03:05:54;9.60;;;5.63;;
16822;SDS011;8528;49.976;11.858;2023-02-15T03:08:24;8.73;;;5.30;;
16822;SDS011;8528;49.976;11.858;2023-02-15T03:10:57;9.70;;;6.17;;
16822;SDS011;8528;49.976;11.858;2023-02-15T03:13:26;9.43;;;5.70;;
16822;SDS011;8528;49.976;11.858;2023-02-15T03:15:54;9.70;;;5.77;;
16822;SDS011;8528;49.976;11.858;2023-02-15T03:18:43;9.63;;;5.97;;
16822;SDS011;8528;49.976;11.858;2023-02-15T03:21:19;10.70;;;6.03;;
16822;SDS011;8528;49.976;11.858;2023-02-15T03:23:54;7.83;;;5.80;;
16822;SDS011;8528;49.976;11.858;2023-02-15T03:26:26;11.40;;;5.00;;
16822;SDS011;8528;49.976;11.858;2023-02-15T03:28:56;10.40;;;6.20;;
16822;SDS011;8528;49.976;11.858;2023-02-15T03:31:26;12.23;;;5.90;;
16822;SDS011;8528;49.976;11.858;2023-02-15T03:34:01;8.80;;;5.57;;
16822;SDS011;8528;49.976;11.858;2023-02-15T03:36:36;11.17;;;6.57;;
16822;SDS011;8528;49.976;11.858;2023-02-15T03:39:09;50.40;;;10.70;;
16822;SDS011;8528;49.976;11.858;2023-02-15T03:41:56;34.07;;;7.10;;
16822;SDS011;8528;49.976;11.858;2023-02-15T03:44:29;13.30;;;5.73;;
16822;SDS011;8528;49.976;11.858;2023-02-15T03:47:04;17.67;;;6.00;;
16822;SDS011;8528;49.976;11.858;2023-02-15T03:49:42;8.47;;;4.83;;
16822;SDS011;8528;49.976;11.858;2023-02-15T03:52:13;11.50;;;5.17;;
16822;SDS011;8528;49.976;11.858;2023-02-15T03:54:42;13.13;;;5.37;;
16822;SDS011;8528;49.976;11.858;2023-02-15T03:57:15;8.87;;;4.40;;
16822;SDS011;8528;49.976;11.858;2023-02-15T04:00:13;8.70;;;5.37;;
16822;SDS011;8528;49.976;11.858;2023-02-15T04:03:20;10.97;;;6.03;;
16822;SDS011;8528;49.976;11.858;2023-02-15T04:05:52;10.40;;;5.43;;
16822;SDS011;8528;49.976;11.858;2023-02-15T04:08:19;11.63;;;5.60;;
16822;SDS011;8528;49.976;11.858;2023-02-15T04:10:46;8.50;;;5.60;;
16822;SDS011;8528;49.976;11.858;2023-02-15T04:13:22;11.20;;;6.33;;
16822;SDS011;8528;49.976;11.858;2023-02-15T04:15:50;12.53;;;6.40;;
16822;SDS011;8528;49.976;11.858;2023-02-15T04:18:34;10.47;;;5.93;;
16822;SDS011;8528;49.976;11.858;2023-02-15T04:21:28;10.77;;;5.67;;
16822;SDS011;8528;49.976;11.858;2023-02-15T04:24:14;11.77;;;6.53;;
16822;SDS011;8528;49.976;11.858;2023-02-15T04:27:00;9.93;;;5.83;;
16822;SDS011;8528;49.976;11.858;2023-02-15T04:29:28;9.40;;;6.50;;
16822;SDS011;8528;49.976;11.858;2023-02-15T04:31:55;11.10;;;6.80;;
16822;SDS011;8528;49.976;11.858;2023-02-15T04:34:24;9.97;;;5.87;;
16822;SDS011;8528;49.976;11.858;2023-02-15T04:36:51;14.10;;;6.63;;
16822;SDS011;8528;49.976;11.858;2023-02-15T04:39:18;11.80;;;6.90;;
16822;SDS011;8528;49.976;11.858;2023-02-15T04:41:45;13.33;;;6.57;;
16822;SDS011;8528;49.976;11.858;2023-02-15T04:44:12;14.13;;;8.00;;
16822;SDS011;8528;49.976;11.858;2023-02-15T04:46:39;11.30;;;6.90;;
16822;SDS011;8528;49.976;11.858;2023-02-15T04:49:05;11.83;;;6.50;;
16822;SDS011;8528;49.976;11.858;2023-02-15T04:51:32;11.60;;;7.17;;
16822;SDS011;8528;49.976;11.858;2023-02-15T04:53:59;15.80;;;7.97;;
16822;SDS011;8528;49.976;11.858;2023-02-15T04:56:26;10.77;;;6.73;;
16822;SDS011;8528;49.976;11.858;2023-02-15T04:58:52;12.80;;;6.80;;
16822;SDS011;8528;49.976;11.858;2023-02-15T05:01:19;14.70;;;7.40;;
16822;SDS011;8528;49.976;11.858;2023-02-15T05:03:46;12.13;;;7.37;;
16822;SDS011;8528;49.976;11.858;2023-02-15T05:06:13;13.53;;;7.00;;
16822;SDS011;8528;49.976;11.858;2023-02-15T05:08:39;16.80;;;7.93;;
16822;SDS011;8528;49.976;11.858;2023-02-15T05:11:06;13.27;;;6.47;;
16822;SDS011;8528;49.976;11.858;2023-02-15T05:13:33;11.73;;;6.40;;
16822;SDS011;8528;49.976;11.858;2023-02-15T05:16:00;14.67;;;6.90;;
16822;SDS011;8528;49.976;11.858;2023-02-15T05:18:27;12.63;;;6.53;;
16822;SDS011;8528;49.976;11.858;2023-02-15T05:20:54;10.67;;;6.47;;
16822;SDS011;8528;49.976;11.858;2023-02-15T05:23:20;12.43;;;7.37;;
16822;SDS011;8528;49.976;11.858;2023-02-15T05:25:48;13.80;;;7.30;;
16822;SDS011;8528;49.976;11.858;2023-02-15T05:28:34;11.20;;;6.07;;
16822;SDS011;8528;49.976;11.858;2023-02-15T05:31:06;11.50;;;6.57;;
16822;SDS011;8528;49.976;11.858;2023-02-15T05:33:37;9.93;;;6.27;;
16822;SDS011;8528;49.976;11.858;2023-02-15T05:36:05;9.77;;;6.03;;
16822;SDS011;8528;49.976;11.858;2023-02-15T05:38:33;8.03;;;6.13;;
16822;SDS011;8528;49.976;11.858;2023-02-15T05:41:00;11.20;;;6.47;;
16822;SDS011;8528;49.976;11.858;2023-02-15T05:43:27;9.83;;;5.80;;
16822;SDS011;8528;49.976;11.858;2023-02-15T05:45:54;9.93;;;6.03;;
16822;SDS011;8528;49.976;11.858;2023-02-15T05:48:21;10.33;;;5.67;;
16822;SDS011;8528;49.976;11.858;2023-02-15T05:51:03;9.00;;;5.73;;
16822;SDS011;8528;49.976;11.858;2023-02-15T05:53:36;10.83;;;5.93;;
16822;SDS011;8528;49.976;11.858;2023-02-15T05:56:04;9.53;;;5.40;;
16822;SDS011;8528;49.976;11.858;2023-02-15T05:58:37;10.53;;;6.43;;
16822;SDS011;8528;49.976;11.858;2023-02-15T06:03:36;9.67;;;6.30;;
16822;SDS011;8528;49.976;11.858;2023-02-15T06:06:03;12.37;;;7.10;;
16822;SDS011;8528;49.976;11.858;2023-02-15T06:08:31;11.10;;;6.57;;
16822;SDS011;8528;49.976;11.858;2023-02-15T06:10:58;10.03;;;7.00;;
16822;SDS011;8528;49.976;11.858;2023-02-15T06:13:25;10.10;;;6.47;;
16822;SDS011;8528;49.976;11.858;2023-02-15T06:15:52;9.57;;;6.57;;
16822;SDS011;8528;49.976;11.858;2023-02-15T06:18:19;9.57;;;5.83;;
16822;SDS011;8528;49.976;11.858;2023-02-15T06:20:46;11.27;;;6.00;;
16822;SDS011;8528;49.976;11.858;2023-02-15T06:23:14;9.77;;;5.63;;
16822;SDS011;8528;49.976;11.858;2023-02-15T06:25:41;11.80;;;6.50;;
16822;SDS011;8528;49.976;11.858;2023-02-15T06:28:08;12.03;;;7.07;;
16822;SDS011;8528;49.976;11.858;2023-02-15T06:30:35;12.57;;;6.93;;
16822;SDS011;8528;49.976;11.858;2023-02-15T06:33:01;12.20;;;7.37;;
16822;SDS011;8528;49.976;11.858;2023-02-15T06:35:28;12.03;;;7.47;;
16822;SDS011;8528;49.976;11.858;2023-02-15T06:37:55;11.70;;;7.27;;
16822;SDS011;8528;49.976;11.858;2023-02-15T06:40:22;12.63;;;6.00;;
16822;SDS011;8528;49.976;11.858;2023-02-15T06:42:48;12.40;;;6.60;;
16822;SDS011;8528;49.976;11.858;2023-02-15T06:45:15;12.70;;;7.07;;
16822;SDS011;8528;49.976;11.858;2023-02-15T06:47:42;10.63;;;6.97;;
16822;SDS011;8528;49.976;11.858;2023-02-15T06:50:09;9.60;;;6.47;;
16822;SDS011;8528;49.976;11.858;2023-02-15T06:52:36;10.57;;;6.50;;
16822;SDS011;8528;49.976;11.858;2023-02-15T06:55:04;11.17;;;6.93;;
16822;SDS011;8528;49.976;11.858;2023-02-15T06:57:32;10.80;;;7.07;;
16822;SDS011;8528;49.976;11.858;2023-02-15T06:59:59;14.13;;;8.17;;
16822;SDS011;8528;49.976;11.858;2023-02-15T07:02:26;8.80;;;7.07;;
16822;SDS011;8528;49.976;11.858;2023-02-15T07:04:53;12.80;;;7.47;;
16822;SDS011;8528;49.976;11.858;2023-02-15T07:07:20;9.27;;;6.70;;
16822;SDS011;8528;49.976;11.858;2023-02-15T07:09:46;9.77;;;6.40;;
16822;SDS011;8528;49.976;11.858;2023-02-15T07:12:13;11.80;;;6.93;;
16822;SDS011;8528;49.976;11.858;2023-02-15T07:14:58;13.37;;;7.23;;
16822;SDS011;8528;49.976;11.858;2023-02-15T07:17:26;10.13;;;6.33;;
16822;SDS011;8528;49.976;11.858;2023-02-15T07:20:21;9.40;;;6.03;;
16822;SDS011;8528;49.976;11.858;2023-02-15T07:22:49;11.13;;;5.13;;
16822;SDS011;8528;49.976;11.858;2023-02-15T07:25:17;9.93;;;6.43;;
16822;SDS011;8528;49.976;11.858;2023-02-15T07:27:44;9.57;;;5.87;;
16822;SDS011;8528;49.976;11.858;2023-02-15T07:30:12;10.50;;;5.97;;
16822;SDS011;8528;49.976;11.858;2023-02-15T07:32:41;11.70;;;7.37;;
16822;SDS011;8528;49.976;11.858;2023-02-15T07:35:30;12.80;;;7.03;;
16822;SDS011;8528;49.976;11.858;2023-02-15T07:37:57;13.60;;;7.80;;
16822;SDS011;8528;49.976;11.858;2023-02-15T07:40:23;11.13;;;7.20;;
16822;SDS011;8528;49.976;11.858;2023-02-15T07:42:50;11.87;;;7.20;;
16822;SDS011;8528;49.976;11.858;2023-02-15T07:45:19;11.63;;;7.53;;
16822;SDS011;8528;49.976;11.858;2023-02-15T07:47:46;12.23;;;7.93;;
16822;SDS011;8528;49.976;11.858;2023-02-15T07:50:13;13.53;;;8.03;;
16822;SDS011;8528;49.976;11.858;2023-02-15T07:52:40;13.17;;;9.00;;
16822;SDS011;8528;49.976;11.858;2023-02-15T07:55:07;14.97;;;10.20;;
16822;SDS011;8528;49.976;11.858;2023-02-15T07:57:34;13.93;;;9.77;;
16822;SDS011;8528;49.976;11.858;2023-02-15T08:00:02;17.03;;;11.53;;
16822;SDS011;8528;49.976;11.858;2023-02-15T08:02:29;18.10;;;12.30;;
16822;SDS011;8528;49.976;11.858;2023-02-15T08:04:56;12.80;;;9.50;;
16822;SDS011;8528;49.976;11.858;2023-02-15T08:07:23;10.93;;;8.63;;
16822;SDS011;8528;49.976;11.858;2023-02-15T08:09:50;9.33;;;7.47;;
16822;SDS011;8528;49.976;11.858;2023-02-15T08:12:17;8.47;;;7.53;;
16822;SDS011;8528;49.976;11.858;2023-02-15T08:14:43;9.23;;;8.23;;
16822;SDS011;8528;49.976;11.858;2023-02-15T08:17:10;23.40;;;15.57;;
16822;SDS011;8528;49.976;11.858;2023-02-15T08:19:37;19.73;;;14.77;;
16822;SDS011;8528;49.976;11.858;2023-02-15T08:22:04;17.30;;;12.97;;
16822;SDS011;8528;49.976;11.858;2023-02-15T08:24:34;15.93;;;13.67;;
16822;SDS011;8528;49.976;11.858;2023-02-15T08:27:03;14.10;;;12.60;;
16822;SDS011;8528;49.976;11.858;2023-02-15T08:29:31;11.97;;;10.73;;
16822;SDS011;8528;49.976;11.858;2023-02-15T08:32:00;10.93;;;9.83;;
16822;SDS011;8528;49.976;11.858;2023-02-15T08:34:30;9.77;;;8.77;;
16822;SDS011;8528;49.976;11.858;2023-02-15T08:37:10;5.10;;;4.70;;
16822;SDS011;8528;49.976;11.858;2023-02-15T08:39:37;5.43;;;4.95;;
16822;SDS011;8528;49.976;11.858;2023-02-15T08:42:03;5.55;;;5.05;;
16822;SDS011;8528;49.976;11.858;2023-02-15T08:44:30;6.68;;;6.05;;
16822;SDS011;8528;49.976;11.858;2023-02-15T08:46:57;7.07;;;6.43;;
16822;SDS011;8528;49.976;11.858;2023-02-15T08:49:28;6.03;;;5.53;;
16822;SDS011;8528;49.976;11.858;2023-02-15T08:51:55;9.23;;;8.32;;
16822;SDS011;8528;49.976;11.858;2023-02-15T08:54:22;8.75;;;7.95;;
16822;SDS011;8528;49.976;11.858;2023-02-15T08:56:49;7.43;;;6.15;;
16822;SDS011;8528;49.976;11.858;2023-02-15T08:59:16;5.80;;;5.30;;
16822;SDS011;8528;49.976;11.858;2023-02-15T09:01:48;5.97;;;4.97;;
16822;SDS011;8528;49.976;11.858;2023-02-15T09:04:17;5.28;;;4.78;;
16822;SDS011;8528;49.976;11.858;2023-02-15T09:06:44;6.03;;;4.90;;
16822;SDS011;8528;49.976;11.858;2023-02-15T09:09:14;5.03;;;4.63;;
16822;SDS011;8528;49.976;11.858;2023-02-15T09:11:42;4.80;;;4.35;;
16822;SDS011;8528;49.976;11.858;2023-02-15T09:14:12;4.45;;;4.05;;
16822;SDS011;8528;49.976;11.858;2023-02-15T09:16:41;5.38;;;4.88;;
16822;SDS011;8528;49.976;11.858;2023-02-15T09:19:15;5.35;;;4.90;;
16822;SDS011;8528;49.976;11.858;2023-02-15T09:21:43;5.05;;;4.65;;
16822;SDS011;8528;49.976;11.858;2023-02-15T09:24:11;4.88;;;4.45;;
16822;SDS011;8528;49.976;11.858;2023-02-15T09:26:40;5.30;;;4.90;;
16822;SDS011;8528;49.976;11.858;2023-02-15T09:29:08;5.97;;;5.47;;
16822;SDS011;8528;49.976;11.858;2023-02-15T09:31:38;5.60;;;5.13;;
16822;SDS011;8528;49.976;11.858;2023-02-15T09:34:11;4.60;;;4.20;;
16822;SDS011;8528;49.976;11.858;2023-02-15T09:36:39;5.70;;;4.50;;
16822;SDS011;8528;49.976;11.858;2023-02-15T09:44:25;4.30;;;3.90;;
16822;SDS011;8528;49.976;11.858;2023-02-15T09:50:12;4.00;;;3.67;;
16822;SDS011;8528;49.976;11.858;2023-02-15T09:56:09;3.20;;;3.00;;
16822;SDS011;8528;49.976;11.858;2023-02-15T10:02:20;3.72;;;3.30;;
16822;SDS011;8528;49.976;11.858;2023-02-15T10:05:00;3.60;;;3.30;;
16822;SDS011;8528;49.976;11.858;2023-02-15T10:17:26;4.30;;;3.90;;
16822;SDS011;8528;49.976;11.858;2023-02-15T10:25:25;4.50;;;4.15;;
16822;SDS011;8528;49.976;11.858;2023-02-15T10:27:59;4.68;;;4.28;;
16822;SDS011;8528;49.976;11.858;2023-02-15T10:30:54;4.72;;;4.32;;
16822;SDS011;8528;49.976;11.858;2023-02-15T10:33:43;4.55;;;4.20;;
16822;SDS011;8528;49.976;11.858;2023-02-15T10:36:12;4.18;;;3.88;;
16822;SDS011;8528;49.976;11.858;2023-02-15T10:38:57;4.40;;;4.10;;
16822;SDS011;8528;49.976;11.858;2023-02-15T10:47:48;5.22;;;4.72;;
16822;SDS011;8528;49.976;11.858;2023-02-15T10:50:30;5.25;;;4.85;;
16822;SDS011;8528;49.976;11.858;2023-02-15T11:07:19;5.82;;;5.32;;
16822;SDS011;8528;49.976;11.858;2023-02-15T11:09:52;5.47;;;5.07;;
16822;SDS011;8528;49.976;11.858;2023-02-15T11:12:27;5.70;;;5.20;;
16822;SDS011;8528;49.976;11.858;2023-02-15T11:15:02;5.95;;;5.43;;
16822;SDS011;8528;49.976;11.858;2023-02-15T11:17:52;6.15;;;5.57;;
16822;SDS011;8528;49.976;11.858;2023-02-15T11:22:59;6.32;;;5.72;;
16822;SDS011;8528;49.976;11.858;2023-02-15T11:25:29;6.45;;;5.85;;
16822;SDS011;8528;49.976;11.858;2023-02-15T11:27:58;5.57;;;5.07;;
16822;SDS011;8528;49.976;11.858;2023-02-15T11:30:33;6.55;;;5.95;;
16822;SDS011;8528;49.976;11.858;2023-02-15T11:33:44;6.53;;;5.93;;
16822;SDS011;8528;49.976;11.858;2023-02-15T11:36:11;6.75;;;6.15;;
16822;SDS011;8528;49.976;11.858;2023-02-15T11:38:48;6.57;;;5.93;;
16822;SDS011;8528;49.976;11.858;2023-02-15T11:41:21;6.47;;;5.88;;
16822;SDS011;8528;49.976;11.858;2023-02-15T11:47:02;6.75;;;6.10;;
16822;SDS011;8528;49.976;11.858;2023-02-15T11:49:30;7.32;;;6.25;;
16822;SDS011;8528;49.976;11.858;2023-02-15T11:52:00;6.72;;;6.13;;
16822;SDS011;8528;49.976;11.858;2023-02-15T11:54:36;6.32;;;5.72;;
16822;SDS011;8528;49.976;11.858;2023-02-15T11:59:46;6.50;;;5.85;;
16822;SDS011;8528;49.976;11.858;2023-02-15T12:02:18;7.07;;;6.38;;
16822;SDS011;8528;49.976;11.858;2023-02-15T12:04:57;7.28;;;6.15;;
16822;SDS011;8528;49.976;11.858;2023-02-15T12:07:32;7.13;;;6.43;;
16822;SDS011;8528;49.976;11.858;2023-02-15T12:12:44;7.60;;;6.50;;
16822;SDS011;8528;49.976;11.858;2023-02-15T12:15:12;6.97;;;6.20;;
16822;SDS011;8528;49.976;11.858;2023-02-15T12:22:53;6.77;;;6.07;;
16822;SDS011;8528;49.976;11.858;2023-02-15T12:30:50;7.50;;;6.70;;
16822;SDS011;8528;49.976;11.858;2023-02-15T12:35:59;7.17;;;6.47;;
16822;SDS011;8528;49.976;11.858;2023-02-15T12:42:00;6.63;;;5.97;;
16822;SDS011;8528;49.976;11.858;2023-02-15T12:44:33;7.30;;;6.50;;
16822;SDS011;8528;49.976;11.858;2023-02-15T12:47:04;7.13;;;6.43;;
16822;SDS011;8528;49.976;11.858;2023-02-15T12:49:43;7.17;;;6.27;;
16822;SDS011;8528;49.976;11.858;2023-02-15T12:54:49;6.83;;;5.93;;
16822;SDS011;8528;49.976;11.858;2023-02-15T13:00:24;7.03;;;6.20;;
16822;SDS011;8528;49.976;11.858;2023-02-15T13:02:55;6.80;;;6.10;;
16822;SDS011;8528;49.976;11.858;2023-02-15T13:05:42;7.30;;;6.37;;
16822;SDS011;8528;49.976;11.858;2023-02-15T13:08:14;7.40;;;6.37;;
16822;SDS011;8528;49.976;11.858;2023-02-15T13:10:52;7.77;;;6.93;;
16822;SDS011;8528;49.976;11.858;2023-02-15T13:13:20;7.30;;;6.60;;
16822;SDS011;8528;49.976;11.858;2023-02-15T13:15:51;7.27;;;6.57;;
16822;SDS011;8528;49.976;11.858;2023-02-15T13:21:21;7.57;;;6.70;;
16822;SDS011;8528;49.976;11.858;2023-02-15T13:23:57;8.10;;;7.03;;
16822;SDS011;8528;49.976;11.858;2023-02-15T13:26:29;8.90;;;7.80;;
16822;SDS011;8528;49.976;11.858;2023-02-15T13:28:59;7.97;;;7.07;;
16822;SDS011;8528;49.976;11.858;2023-02-15T13:31:35;8.00;;;7.13;;
16822;SDS011;8528;49.976;11.858;2023-02-15T13:34:03;8.57;;;7.60;;
16822;SDS011;8528;49.976;11.858;2023-02-15T13:36:47;9.40;;;8.37;;
16822;SDS011;8528;49.976;11.858;2023-02-15T13:39:36;8.93;;;7.53;;
16822;SDS011;8528;49.976;11.858;2023-02-15T13:42:19;9.83;;;8.50;;
16822;SDS011;8528;49.976;11.858;2023-02-15T13:55:35;9.77;;;8.33;;
16822;SDS011;8528;49.976;11.858;2023-02-15T14:00:49;9.80;;;8.03;;
16822;SDS011;8528;49.976;11.858;2023-02-15T14:06:13;9.87;;;8.40;;
16822;SDS011;8528;49.976;11.858;2023-02-15T14:11:44;11.47;;;8.07;;
16822;SDS011;8528;49.976;11.858;2023-02-15T14:20:25;8.93;;;7.17;;
16822;SDS011;8528;49.976;11.858;2023-02-15T14:23:14;9.73;;;7.10;;
16822;SDS011;8528;49.976;11.858;2023-02-15T14:26:02;9.07;;;7.13;;
16822;SDS011;8528;49.976;11.858;2023-02-15T14:31:17;8.77;;;6.43;;
16822;SDS011;8528;49.976;11.858;2023-02-15T14:33:53;10.00;;;7.50;;
16822;SDS011;8528;49.976;11.858;2023-02-15T14:36:22;9.80;;;7.70;;
16822;SDS011;8528;49.976;11.858;2023-02-15T14:42:10;8.70;;;6.67;;
16822;SDS011;8528;49.976;11.858;2023-02-15T14:48:03;10.17;;;7.00;;
16822;SDS011;8528;49.976;11.858;2023-02-15T14:50:38;11.17;;;7.20;;
16822;SDS011;8528;49.976;11.858;2023-02-15T14:58:37;10.63;;;7.00;;
16822;SDS011;8528;49.976;11.858;2023-02-15T15:01:08;10.57;;;6.97;;
16822;SDS011;8528;49.976;11.858;2023-02-15T15:03:36;11.80;;;7.60;;
16822;SDS011;8528;49.976;11.858;2023-02-15T15:06:23;11.73;;;7.67;;
16822;SDS011;8528;49.976;11.858;2023-02-15T15:09:14;9.73;;;7.00;;
16822;SDS011;8528;49.976;11.858;2023-02-15T15:11:51;10.67;;;7.17;;
16822;SDS011;8528;49.976;11.858;2023-02-15T15:17:00;10.93;;;7.40;;
16822;SDS011;8528;49.976;11.858;2023-02-15T15:43:29;12.87;;;7.70;;
16822;SDS011;8528;49.976;11.858;2023-02-15T15:46:24;13.97;;;8.50;;
16822;SDS011;8528;49.976;11.858;2023-02-15T15:49:08;11.83;;;7.57;;
16822;SDS011;8528;49.976;11.858;2023-02-15T15:51:39;13.83;;;8.27;;
16822;SDS011;8528;49.976;11.858;2023-02-15T15:54:12;12.03;;;8.00;;
16822;SDS011;8528;49.976;11.858;2023-02-15T15:56:54;13.63;;;7.80;;
16822;SDS011;8528;49.976;11.858;2023-02-15T15:59:30;15.77;;;9.00;;
16822;SDS011;8528;49.976;11.858;2023-02-15T16:02:03;14.10;;;8.37;;
16822;SDS011;8528;49.976;11.858;2023-02-15T16:04:33;17.93;;;9.67;;
16822;SDS011;8528;49.976;11.858;2023-02-15T16:07:14;16.83;;;10.10;;
16822;SDS011;8528;49.976;11.858;2023-02-15T16:12:35;14.87;;;9.00;;
16822;SDS011;8528;49.976;11.858;2023-02-15T16:15:12;15.57;;;8.93;;
16822;SDS011;8528;49.976;11.858;2023-02-15T16:17:41;15.50;;;8.47;;
16822;SDS011;8528;49.976;11.858;2023-02-15T16:22:48;16.23;;;9.50;;
16822;SDS011;8528;49.976;11.858;2023-02-15T16:28:32;16.83;;;9.40;;
16822;SDS011;8528;49.976;11.858;2023-02-15T16:31:04;15.10;;;9.47;;
16822;SDS011;8528;49.976;11.858;2023-02-15T16:33:37;16.63;;;9.73;;
16822;SDS011;8528;49.976;11.858;2023-02-15T16:36:06;18.27;;;9.40;;
16822;SDS011;8528;49.976;11.858;2023-02-15T16:41:11;21.60;;;11.17;;
16822;SDS011;8528;49.976;11.858;2023-02-15T16:43:40;20.77;;;10.77;;
16822;SDS011;8528;49.976;11.858;2023-02-15T16:46:12;21.07;;;10.27;;
16822;SDS011;8528;49.976;11.858;2023-02-15T16:48:53;19.50;;;9.57;;
16822;SDS011;8528;49.976;11.858;2023-02-15T16:51:29;18.53;;;10.20;;
16822;SDS011;8528;49.976;11.858;2023-02-15T16:54:01;22.27;;;10.63;;
16822;SDS011;8528;49.976;11.858;2023-02-15T16:56:31;27.93;;;10.37;;
16822;SDS011;8528;49.976;11.858;2023-02-15T17:01:30;23.33;;;10.73;;
16822;SDS011;8528;49.976;11.858;2023-02-15T17:06:40;18.10;;;9.83;;
16822;SDS011;8528;49.976;11.858;2023-02-15T17:09:13;21.43;;;10.60;;
16822;SDS011;8528;49.976;11.858;2023-02-15T17:11:44;24.17;;;10.93;;
16822;SDS011;8528;49.976;11.858;2023-02-15T17:14:13;21.87;;;12.83;;
16822;SDS011;8528;49.976;11.858;2023-02-15T17:17:07;24.23;;;11.53;;
16822;SDS011;8528;49.976;11.858;2023-02-15T17:19:47;21.13;;;11.43;;
16822;SDS011;8528;49.976;11.858;2023-02-15T17:22:17;26.40;;;10.23;;
16822;SDS011;8528;49.976;11.858;2023-02-15T17:24:50;42.43;;;11.03;;
16822;SDS011;8528;49.976;11.858;2023-02-15T17:27:29;30.33;;;10.13;;
16822;SDS011;8528;49.976;11.858;2023-02-15T17:30:00;17.00;;;9.40;;
16822;SDS011;8528;49.976;11.858;2023-02-15T17:32:51;15.60;;;8.73;;
16822;SDS011;8528;49.976;11.858;2023-02-15T17:35:24;17.37;;;9.63;;
16822;SDS011;8528;49.976;11.858;2023-02-15T17:38:01;16.17;;;9.50;;
16822;SDS011;8528;49.976;11.858;2023-02-15T17:40:31;20.97;;;10.67;;
16822;SDS011;8528;49.976;11.858;2023-02-15T17:43:00;19.93;;;9.87;;
16822;SDS011;8528;49.976;11.858;2023-02-15T17:45:30;17.73;;;9.63;;
16822;SDS011;8528;49.976;11.858;2023-02-15T17:48:01;29.87;;;9.47;;
16822;SDS011;8528;49.976;11.858;2023-02-15T17:50:30;21.17;;;11.20;;
16822;SDS011;8528;49.976;11.858;2023-02-15T17:52:58;20.03;;;10.97;;
16822;SDS011;8528;49.976;11.858;2023-02-15T17:55:27;21.07;;;10.00;;
16822;SDS011;8528;49.976;11.858;2023-02-15T18:00:38;21.97;;;11.20;;
16822;SDS011;8528;49.976;11.858;2023-02-15T18:03:28;35.13;;;10.77;;
16822;SDS011;8528;49.976;11.858;2023-02-15T18:06:20;28.50;;;11.87;;
16822;SDS011;8528;49.976;11.858;2023-02-15T18:09:08;18.90;;;11.23;;
16822;SDS011;8528;49.976;11.858;2023-02-15T18:11:59;41.93;;;20.97;;
16822;SDS011;8528;49.976;11.858;2023-02-15T18:14:25;46.63;;;21.67;;
16822;SDS011;8528;49.976;11.858;2023-02-15T18:16:53;27.47;;;13.87;;
16822;SDS011;8528;49.976;11.858;2023-02-15T18:19:21;34.70;;;13.80;;
16822;SDS011;8528;49.976;11.858;2023-02-15T18:21:51;26.47;;;14.10;;
16822;SDS011;8528;49.976;11.858;2023-02-15T18:24:19;30.00;;;12.83;;
16822;SDS011;8528;49.976;11.858;2023-02-15T18:26:49;28.07;;;11.60;;